createdAt,value
2023-01-09T00:01:41.735Z,42.20
2023-01-09T00:04:10.790Z,43.50
2023-01-09T00:06:40.205Z,44.50
2023-01-09T00:09:08.388Z,41.87
2023-01-09T00:11:36.488Z,40.10
2023-01-09T00:14:05.519Z,42.00
2023-01-09T00:16:33.633Z,41.23
2023-01-09T00:19:03.105Z,42.60
2023-01-09T00:21:31.177Z,42.43
2023-01-09T00:23:59.137Z,43.53
2023-01-09T00:26:27.141Z,41.87
2023-01-09T00:28:55.235Z,41.63
2023-01-09T00:31:24.678Z,41.67
2023-01-09T00:33:57.329Z,42.07
2023-01-09T00:36:27.240Z,43.47
2023-01-09T00:38:55.294Z,44.73
2023-01-09T00:41:27.669Z,42.23
2023-01-09T00:43:59.063Z,42.37
2023-01-09T00:46:31.265Z,39.73
2023-01-09T00:49:00.038Z,42.17
2023-01-09T00:51:29.471Z,41.43
2023-01-09T00:53:58.322Z,43.13
2023-01-09T00:56:26.537Z,41.23
2023-01-09T00:58:57.659Z,40.33
2023-01-09T01:01:25.849Z,39.63
2023-01-09T01:03:53.923Z,42.53
2023-01-09T01:06:39.627Z,40.37
2023-01-09T01:09:09.043Z,41.17
2023-01-09T01:11:37.010Z,45.80
2023-01-09T01:14:04.987Z,38.97
2023-01-09T01:16:34.071Z,42.57
2023-01-09T01:19:02.164Z,41.83
2023-01-09T01:21:35.257Z,40.93
2023-01-09T01:24:03.195Z,41.13
2023-01-09T01:26:32.956Z,41.07
2023-01-09T01:29:01.353Z,40.83
2023-01-09T01:31:29.351Z,37.50
2023-01-09T01:33:58.617Z,41.63
2023-01-09T01:36:26.596Z,38.40
2023-01-09T01:38:54.653Z,39.60
2023-01-09T01:41:30.230Z,40.23
2023-01-09T01:44:01.698Z,36.87
2023-01-09T01:46:30.861Z,36.60
2023-01-09T01:49:04.930Z,37.70
2023-01-09T01:51:36.233Z,37.47
2023-01-09T01:54:09.505Z,37.73
2023-01-09T01:56:41.521Z,36.90
2023-01-09T01:59:15.864Z,35.33
2023-01-09T02:01:48.572Z,34.90
2023-01-09T02:04:17.045Z,37.90
2023-01-09T02:06:45.633Z,36.87
2023-01-09T02:09:15.378Z,35.43
2023-01-09T02:11:46.560Z,35.43
2023-01-09T02:14:16.986Z,34.27
2023-01-09T02:16:53.864Z,36.50
2023-01-09T02:19:43.053Z,35.87
2023-01-09T02:22:20.427Z,35.43
2023-01-09T02:25:06.445Z,34.17
2023-01-09T02:28:02.902Z,33.40
2023-01-09T02:30:43.828Z,32.60
2023-01-09T02:33:39.008Z,33.67
2023-01-09T02:36:17.188Z,31.87
2023-01-09T02:38:55.285Z,31.03
2023-01-09T02:41:29.731Z,32.47
2023-01-09T02:44:15.753Z,32.60
2023-01-09T02:46:45.569Z,33.53
2023-01-09T02:49:14.661Z,34.83
2023-01-09T02:51:53.317Z,34.73
2023-01-09T02:54:32.397Z,31.67
2023-01-09T02:57:21.141Z,37.17
2023-01-09T03:00:04.087Z,36.97
2023-01-09T03:02:46.692Z,40.27
2023-01-09T03:05:21.350Z,37.87
2023-01-09T03:07:54.941Z,36.63
2023-01-09T03:10:29.172Z,33.47
2023-01-09T03:13:00.348Z,34.47
2023-01-09T03:15:31.676Z,35.03
2023-01-09T03:18:05.108Z,37.67
2023-01-09T03:20:34.202Z,33.20
2023-01-09T03:23:04.896Z,33.87
2023-01-09T03:25:33.769Z,37.27
2023-01-09T03:28:03.238Z,34.70
2023-01-09T03:30:33.268Z,34.17
2023-01-09T03:33:02.810Z,34.20
2023-01-09T03:35:30.846Z,37.07
2023-01-09T03:37:59.286Z,36.73
2023-01-09T03:40:27.377Z,36.97
2023-01-09T03:42:55.450Z,35.07
2023-01-09T03:45:23.483Z,36.10
2023-01-09T03:47:53.050Z,37.20
2023-01-09T03:50:22.560Z,35.17
2023-01-09T03:52:50.628Z,36.67
2023-01-09T03:55:18.713Z,37.37
2023-01-09T03:57:46.781Z,36.00
2023-01-09T04:00:16.640Z,32.70
2023-01-09T04:02:44.624Z,38.47
2023-01-09T04:05:12.595Z,35.10
2023-01-09T04:07:43.350Z,37.50
2023-01-09T04:10:12.723Z,41.27
2023-01-09T04:12:40.748Z,39.63
2023-01-09T04:15:09.480Z,39.53
2023-01-09T04:17:39.658Z,38.30
2023-01-09T04:20:08.691Z,41.00
2023-01-09T04:22:37.899Z,38.23
2023-01-09T04:25:09.073Z,38.90
2023-01-09T04:27:37.086Z,39.60
2023-01-09T04:30:05.810Z,36.60
2023-01-09T04:32:33.861Z,37.83
2023-01-09T04:35:01.891Z,40.20
2023-01-09T04:37:29.937Z,34.97
2023-01-09T04:39:59.010Z,37.17
2023-01-09T04:42:28.410Z,34.87
2023-01-09T04:44:56.406Z,34.33
2023-01-09T04:47:24.539Z,35.03
2023-01-09T04:49:55.496Z,35.60
2023-01-09T04:52:23.787Z,32.27
2023-01-09T04:54:51.863Z,36.27
2023-01-09T04:57:20.246Z,35.13
2023-01-09T04:59:50.393Z,36.90
2023-01-09T05:02:19.613Z,38.70
2023-01-09T05:04:47.829Z,39.03
2023-01-09T05:07:16.184Z,39.77
2023-01-09T05:09:44.755Z,37.33
2023-01-09T05:12:12.738Z,39.73
2023-01-09T05:14:40.774Z,42.80
2023-01-09T05:17:10.197Z,44.20
2023-01-09T05:19:38.940Z,41.73
2023-01-09T05:22:07.005Z,43.70
2023-01-09T05:24:35.084Z,41.70
2023-01-09T05:27:03.252Z,42.70
2023-01-09T05:29:31.428Z,39.87
2023-01-09T05:31:59.505Z,39.17
2023-01-09T05:34:28.939Z,38.67
2023-01-09T05:36:56.901Z,37.83
2023-01-09T05:39:24.967Z,37.23
2023-01-09T05:41:53.194Z,38.23
2023-01-09T05:44:21.195Z,39.70
2023-01-09T05:46:49.271Z,37.93
2023-01-09T05:49:17.402Z,36.37
2023-01-09T05:51:46.827Z,35.57
2023-01-09T05:54:14.822Z,36.73
2023-01-09T05:56:43.547Z,37.57
2023-01-09T05:59:11.645Z,39.67
2023-01-09T06:01:39.730Z,40.80
2023-01-09T06:04:09.826Z,44.70
2023-01-09T06:06:37.914Z,35.37
2023-01-09T06:09:07.290Z,37.77
2023-01-09T06:11:35.768Z,37.90
2023-01-09T06:14:03.880Z,34.50
2023-01-09T06:16:32.103Z,39.03
2023-01-09T06:19:00.093Z,36.43
2023-01-09T06:21:29.541Z,37.10
2023-01-09T06:23:57.725Z,33.37
2023-01-09T06:26:28.655Z,33.10
2023-01-09T06:28:56.766Z,33.93
2023-01-09T06:31:25.609Z,33.53
2023-01-09T06:33:54.416Z,34.47
2023-01-09T06:36:22.900Z,35.27
2023-01-09T06:38:50.931Z,33.63
2023-01-09T06:41:18.943Z,32.33
2023-01-09T06:43:48.261Z,30.27
2023-01-09T06:46:16.269Z,33.13
2023-01-09T06:48:44.380Z,33.73
2023-01-09T06:51:12.675Z,33.13
2023-01-09T06:53:40.654Z,33.57
2023-01-09T06:56:08.793Z,32.27
2023-01-09T06:58:36.778Z,32.83
2023-01-09T07:01:06.607Z,32.40
2023-01-09T07:03:34.684Z,31.20
2023-01-09T07:06:02.676Z,31.80
2023-01-09T07:08:31.924Z,33.20
2023-01-09T07:10:59.996Z,34.53
2023-01-09T07:13:28.278Z,32.17
2023-01-09T07:15:56.349Z,29.77
2023-01-09T07:18:28.711Z,30.10
2023-01-09T07:20:56.910Z,31.90
2023-01-09T07:23:25.022Z,29.23
2023-01-09T07:25:53.646Z,30.47
2023-01-09T07:28:21.623Z,30.37
2023-01-09T07:30:49.640Z,31.43
2023-01-09T07:33:17.764Z,30.03
2023-01-09T07:35:47.186Z,28.33
2023-01-09T07:38:15.197Z,33.43
2023-01-09T07:40:45.634Z,32.60
2023-01-09T07:43:13.710Z,32.00
2023-01-09T07:45:41.778Z,28.77
2023-01-09T07:48:12.445Z,28.10
2023-01-09T07:50:40.478Z,31.07
2023-01-09T07:53:09.920Z,28.30
2023-01-09T07:55:37.984Z,29.37
2023-01-09T07:58:06.148Z,30.37
2023-01-09T08:00:34.206Z,26.73
2023-01-09T08:03:02.275Z,28.47
2023-01-09T08:05:30.305Z,29.00
2023-01-09T08:07:58.323Z,29.27
2023-01-09T08:10:28.137Z,26.23
2023-01-09T08:12:56.200Z,31.47
2023-01-09T08:15:24.232Z,26.47
2023-01-09T08:17:52.286Z,30.40
2023-01-09T08:20:20.458Z,26.37
2023-01-09T08:22:53.594Z,32.50
2023-01-09T08:25:22.285Z,34.33
2023-01-09T08:27:51.639Z,30.73
2023-01-09T08:30:20.076Z,26.77
2023-01-09T08:32:51.228Z,30.80
2023-01-09T08:35:19.503Z,29.50
2023-01-09T08:37:48.089Z,28.87
2023-01-09T08:40:17.580Z,30.20
2023-01-09T08:43:03.539Z,30.10
2023-01-09T08:45:50.726Z,29.63
2023-01-09T08:48:18.797Z,28.00
2023-01-09T08:50:46.846Z,32.90
2023-01-09T08:53:15.425Z,28.87
2023-01-09T08:55:43.447Z,29.40
2023-01-09T08:58:11.572Z,32.63
2023-01-09T09:00:41.276Z,28.90
2023-01-09T09:03:11.537Z,32.13
2023-01-09T09:05:39.537Z,30.53
2023-01-09T09:08:07.555Z,27.07
2023-01-09T09:10:35.772Z,27.23
2023-01-09T09:13:03.864Z,28.73
2023-01-09T09:15:34.496Z,26.30
2023-01-09T09:18:06.896Z,26.77
2023-01-09T09:20:37.736Z,25.10
2023-01-09T09:23:08.147Z,24.57
2023-01-09T09:25:38.230Z,24.30
2023-01-09T09:28:12.021Z,24.77
2023-01-09T09:30:40.284Z,22.20
2023-01-09T09:33:10.482Z,25.50
2023-01-09T09:35:38.639Z,20.87
2023-01-09T09:38:06.876Z,23.00
2023-01-09T09:40:58.121Z,22.70
2023-01-09T09:44:02.803Z,25.20
2023-01-09T09:46:43.316Z,24.70
2023-01-09T09:49:18.604Z,25.50
2023-01-09T09:51:57.953Z,24.13
2023-01-09T09:54:31.312Z,23.20
2023-01-09T09:57:01.790Z,24.70
2023-01-09T09:59:34.132Z,26.43
2023-01-09T10:02:07.092Z,23.33
2023-01-09T10:04:42.017Z,24.57
2023-01-09T10:07:19.245Z,26.20
2023-01-09T10:09:50.766Z,26.43
2023-01-09T10:12:28.423Z,27.50
2023-01-09T10:14:58.607Z,26.67
2023-01-09T10:17:37.986Z,24.10
2023-01-09T10:20:32.836Z,28.73
2023-01-09T10:23:09.816Z,24.37
2023-01-09T10:25:44.960Z,25.33
2023-01-09T10:28:30.508Z,22.23
2023-01-09T10:31:03.758Z,23.00
2023-01-09T10:33:43.239Z,23.20
2023-01-09T10:36:40.130Z,24.03
2023-01-09T10:39:13.471Z,23.90
2023-01-09T10:41:49.682Z,22.00
2023-01-09T10:44:22.198Z,25.00
2023-01-09T10:46:54.676Z,24.33
2023-01-09T10:49:24.413Z,24.97
2023-01-09T10:52:06.743Z,24.60
2023-01-09T10:54:35.122Z,24.20
2023-01-09T10:57:10.826Z,21.73
2023-01-09T10:59:39.373Z,24.43
2023-01-09T11:02:26.616Z,23.33
2023-01-09T11:04:54.622Z,22.53
2023-01-09T11:07:28.148Z,20.63
2023-01-09T11:09:58.020Z,20.80
2023-01-09T11:12:27.544Z,23.53
2023-01-09T11:14:55.763Z,21.23
2023-01-09T11:17:28.055Z,20.10
2023-01-09T11:20:03.254Z,22.30
2023-01-09T11:22:44.340Z,22.47
2023-01-09T11:25:14.916Z,22.17
2023-01-09T11:27:43.236Z,24.03
2023-01-09T11:30:27.904Z,21.83
2023-01-09T11:32:57.840Z,21.00
2023-01-09T11:35:29.125Z,21.03
2023-01-09T11:38:09.177Z,24.33
2023-01-09T11:40:46.654Z,25.73
2023-01-09T11:43:18.988Z,21.63
2023-01-09T11:46:00.732Z,25.13
2023-01-09T11:48:33.220Z,21.33
2023-01-09T11:51:03.830Z,22.57
2023-01-09T11:53:51.145Z,25.20
2023-01-09T11:56:19.396Z,24.83
2023-01-09T11:58:47.483Z,26.30
2023-01-09T12:01:39.081Z,22.70
2023-01-09T12:04:25.435Z,21.07
2023-01-09T12:07:13.722Z,21.43
2023-01-09T12:09:55.011Z,22.23
2023-01-09T12:12:29.305Z,22.67
2023-01-09T12:15:24.732Z,20.30
2023-01-09T12:18:03.603Z,22.03
2023-01-09T12:20:40.579Z,22.83
2023-01-09T12:23:33.698Z,21.53
2023-01-09T12:26:14.762Z,22.90
2023-01-09T12:29:13.623Z,23.37
2023-01-09T12:31:59.206Z,22.60
2023-01-09T12:34:51.955Z,28.03
2023-01-09T12:37:41.440Z,23.73
2023-01-09T12:40:24.823Z,23.90
2023-01-09T12:43:00.756Z,21.83
2023-01-09T12:45:42.803Z,22.93
2023-01-09T12:48:23.111Z,21.93
2023-01-09T12:51:19.988Z,18.73
2023-01-09T12:53:53.300Z,18.90
2023-01-09T12:56:24.723Z,17.27
2023-01-09T12:58:58.493Z,17.33
2023-01-09T13:01:30.976Z,18.90
2023-01-09T13:04:09.130Z,19.27
2023-01-09T13:06:42.477Z,19.13
2023-01-09T13:09:21.573Z,19.33
2023-01-09T13:11:55.879Z,19.60
2023-01-09T13:14:34.908Z,21.37
2023-01-09T13:17:07.231Z,17.70
2023-01-09T13:19:39.481Z,19.93
2023-01-09T13:22:11.536Z,17.13
2023-01-09T13:24:49.292Z,20.07
2023-01-09T13:27:23.600Z,15.57
2023-01-09T13:29:59.052Z,17.70
2023-01-09T13:32:46.342Z,18.00
2023-01-09T13:35:15.633Z,16.87
2023-01-09T13:37:44.343Z,18.13
2023-01-09T13:40:29.364Z,25.90
2023-01-09T13:42:59.875Z,28.60
2023-01-09T13:45:32.013Z,23.47
2023-01-09T13:48:25.322Z,21.07
2023-01-09T13:50:55.769Z,18.83
2023-01-09T13:53:48.519Z,20.73
2023-01-09T13:56:16.494Z,23.30
2023-01-09T13:59:04.020Z,22.43
2023-01-09T14:01:44.079Z,23.37
2023-01-09T14:04:44.894Z,22.13
2023-01-09T14:07:25.682Z,20.57
2023-01-09T14:09:58.283Z,18.60
2023-01-09T14:12:27.801Z,19.10
2023-01-09T14:14:59.383Z,14.30
2023-01-09T14:17:34.212Z,15.83
2023-01-09T14:20:08.595Z,17.77
2023-01-09T14:22:46.191Z,17.17
2023-01-09T14:25:29.767Z,19.50
2023-01-09T14:28:21.184Z,17.37
2023-01-09T14:31:11.114Z,19.43
2023-01-09T14:33:42.791Z,21.40
2023-01-09T14:36:15.374Z,20.03
2023-01-09T14:38:46.983Z,20.43
2023-01-09T14:41:49.277Z,20.27
2023-01-09T14:44:30.243Z,20.60
2023-01-09T14:47:04.410Z,19.23
2023-01-09T14:49:36.609Z,18.17
2023-01-09T14:52:11.338Z,20.70
2023-01-09T14:54:43.095Z,20.70
2023-01-09T14:57:25.567Z,18.47
2023-01-09T14:59:57.950Z,23.10
2023-01-09T15:02:28.291Z,19.50
2023-01-09T15:05:01.622Z,21.27
2023-01-09T15:07:34.773Z,23.03
2023-01-09T15:10:04.262Z,21.60
2023-01-09T15:12:33.264Z,20.73
2023-01-09T15:15:04.972Z,20.73
2023-01-09T15:17:38.246Z,20.97
2023-01-09T15:20:12.936Z,19.43
2023-01-09T15:22:40.990Z,22.40
2023-01-09T15:25:38.208Z,20.60
2023-01-09T15:28:29.184Z,21.00
2023-01-09T15:31:02.831Z,19.43
2023-01-09T15:33:34.921Z,18.20
2023-01-09T15:36:11.839Z,23.00
2023-01-09T15:38:40.528Z,19.40
2023-01-09T15:41:10.847Z,16.13
2023-01-09T15:43:41.345Z,16.50
2023-01-09T15:46:10.609Z,15.60
2023-01-09T15:48:38.878Z,17.03
2023-01-09T15:51:14.346Z,17.17
2023-01-09T15:53:43.556Z,18.47
2023-01-09T15:56:19.711Z,20.90
2023-01-09T15:58:49.328Z,21.70
2023-01-09T16:01:32.655Z,25.80
2023-01-09T16:04:07.528Z,29.67
2023-01-09T16:06:45.204Z,29.17
2023-01-09T16:09:18.472Z,31.53
2023-01-09T16:11:49.468Z,31.60
2023-01-09T16:14:21.488Z,31.80
2023-01-09T16:16:51.156Z,28.27
2023-01-09T16:19:33.253Z,26.80
2023-01-09T16:22:03.916Z,30.60
2023-01-09T16:24:40.556Z,36.63
2023-01-09T16:27:27.254Z,48.50
2023-01-09T16:29:58.230Z,33.37
2023-01-09T16:32:29.859Z,29.03
2023-01-09T16:35:00.710Z,21.63
2023-01-09T16:37:30.471Z,18.10
2023-01-09T16:40:25.789Z,15.70
2023-01-09T16:43:02.035Z,18.33
2023-01-09T16:45:33.094Z,21.87
2023-01-09T16:48:01.540Z,19.30
2023-01-09T16:50:30.275Z,17.63
2023-01-09T16:53:03.100Z,18.13
2023-01-09T16:55:31.123Z,21.27
2023-01-09T16:57:59.183Z,17.67
2023-01-09T17:00:27.279Z,16.57
2023-01-09T17:02:56.587Z,19.60
2023-01-09T17:05:25.939Z,18.87
2023-01-09T17:07:54.759Z,20.03
2023-01-09T17:10:25.025Z,18.87
2023-01-09T17:12:53.099Z,17.30
2023-01-09T17:15:21.132Z,16.47
2023-01-09T17:17:49.117Z,15.07
2023-01-09T17:20:19.209Z,15.37
2023-01-09T17:22:49.857Z,15.30
2023-01-09T17:25:35.704Z,15.90
2023-01-09T17:28:24.202Z,14.17
2023-01-09T17:30:52.247Z,14.87
2023-01-09T17:33:20.744Z,15.07
2023-01-09T17:35:48.829Z,14.10
2023-01-09T17:38:17.863Z,15.53
2023-01-09T17:40:46.672Z,16.40
2023-01-09T17:43:16.795Z,18.70
2023-01-09T17:45:47.210Z,22.47
2023-01-09T17:48:17.308Z,23.07
2023-01-09T17:50:47.942Z,30.07
2023-01-09T17:53:17.750Z,30.87
2023-01-09T17:55:47.698Z,34.87
2023-01-09T17:58:29.182Z,36.23
2023-01-09T18:00:58.054Z,64.53
2023-01-09T18:03:31.019Z,70.43
2023-01-09T18:05:59.104Z,56.40
2023-01-09T18:08:27.083Z,42.97
2023-01-09T18:10:55.327Z,39.50
2023-01-09T18:13:24.746Z,39.43
2023-01-09T18:15:52.695Z,36.63
2023-01-09T18:18:22.411Z,35.67
2023-01-09T18:20:53.638Z,35.37
2023-01-09T18:23:22.589Z,34.60
2023-01-09T18:25:50.697Z,33.80
2023-01-09T18:28:18.690Z,33.03
2023-01-09T18:30:51.074Z,32.13
2023-01-09T18:33:19.184Z,33.40
2023-01-09T18:35:47.369Z,31.47
2023-01-09T18:38:17.449Z,30.30
2023-01-09T18:40:46.791Z,31.93
2023-01-09T18:43:15.565Z,35.60
2023-01-09T18:45:43.708Z,34.97
2023-01-09T18:48:15.909Z,37.30
2023-01-09T18:50:45.583Z,46.47
2023-01-09T18:53:13.992Z,74.10
2023-01-09T18:55:42.097Z,77.60
2023-01-09T18:58:12.751Z,61.20
2023-01-09T19:00:41.382Z,52.20
2023-01-09T19:03:11.010Z,46.00
2023-01-09T19:05:40.363Z,39.20
2023-01-09T19:08:08.419Z,38.97
2023-01-09T19:10:36.495Z,40.30
2023-01-09T19:13:04.848Z,39.43
2023-01-09T19:15:34.697Z,41.30
2023-01-09T19:18:03.005Z,43.03
2023-01-09T19:20:31.055Z,41.20
2023-01-09T19:23:00.635Z,41.27
2023-01-09T19:25:29.034Z,37.00
2023-01-09T19:27:59.961Z,43.07
2023-01-09T19:30:28.075Z,44.17
2023-01-09T19:32:56.228Z,42.20
2023-01-09T19:35:24.238Z,44.63
2023-01-09T19:37:52.515Z,42.60
2023-01-09T19:40:21.941Z,45.87
2023-01-09T19:42:49.952Z,38.77
2023-01-09T19:45:18.069Z,41.43
2023-01-09T19:47:50.397Z,42.43
2023-01-09T19:50:19.772Z,41.87
2023-01-09T19:52:48.023Z,40.93
2023-01-09T19:55:16.316Z,43.67
2023-01-09T19:57:48.746Z,37.73
2023-01-09T20:00:17.185Z,36.73
2023-01-09T20:02:45.294Z,38.13
2023-01-09T20:05:13.360Z,40.10
2023-01-09T20:07:41.904Z,45.03
2023-01-09T20:10:10.991Z,42.27
2023-01-09T20:12:39.062Z,45.63
2023-01-09T20:15:14.716Z,44.70
2023-01-09T20:17:43.115Z,45.70
2023-01-09T20:20:16.294Z,41.17
2023-01-09T20:22:44.277Z,42.33
2023-01-09T20:25:12.510Z,43.03
2023-01-09T20:27:40.495Z,39.07
2023-01-09T20:30:12.602Z,39.10
2023-01-09T20:32:42.349Z,40.87
2023-01-09T20:35:13.679Z,41.17
2023-01-09T20:37:42.351Z,39.23
2023-01-09T20:40:11.677Z,40.07
2023-01-09T20:42:39.726Z,41.60
2023-01-09T20:45:10.346Z,43.77
2023-01-09T20:47:38.408Z,45.20
2023-01-09T20:50:07.477Z,45.03
2023-01-09T20:52:35.583Z,41.63
2023-01-09T20:55:04.679Z,41.53
2023-01-09T20:57:32.867Z,45.17
2023-01-09T21:00:00.950Z,51.57
2023-01-09T21:02:30.684Z,47.83
2023-01-09T21:04:58.672Z,48.07
2023-01-09T21:07:27.537Z,44.47
2023-01-09T21:09:56.728Z,44.33
2023-01-09T21:12:34.669Z,42.60
2023-01-09T21:15:07.375Z,43.03
2023-01-09T21:17:38.012Z,44.20
2023-01-09T21:20:08.619Z,43.77
2023-01-09T21:22:37.835Z,41.70
2023-01-09T21:25:06.800Z,37.97
2023-01-09T21:27:38.461Z,34.97
2023-01-09T21:30:12.741Z,40.20
2023-01-09T21:32:42.156Z,38.57
2023-01-09T21:35:11.488Z,37.23
2023-01-09T21:37:40.040Z,40.70
2023-01-09T21:40:12.245Z,38.63
2023-01-09T21:43:03.362Z,43.00
2023-01-09T21:45:51.569Z,49.33
2023-01-09T21:48:21.143Z,46.93
2023-01-09T21:50:49.205Z,58.23
2023-01-09T21:53:17.514Z,64.87
2023-01-09T21:55:45.471Z,63.07
2023-01-09T21:58:13.491Z,51.23
2023-01-09T22:00:41.618Z,67.70
2023-01-09T22:03:15.576Z,56.33
2023-01-09T22:05:45.542Z,50.80
2023-01-09T22:08:13.541Z,48.33
2023-01-09T22:10:41.797Z,43.73
2023-01-09T22:13:17.482Z,45.33
2023-01-09T22:15:47.397Z,42.83
2023-01-09T22:18:15.602Z,46.30
2023-01-09T22:20:46.398Z,49.47
2023-01-09T22:23:14.393Z,54.47
2023-01-09T22:25:42.673Z,52.50
2023-01-09T22:28:11.140Z,57.93
2023-01-09T22:30:40.843Z,56.17
2023-01-09T22:33:11.804Z,58.10
2023-01-09T22:35:40.639Z,54.77
2023-01-09T22:38:11.599Z,56.40
2023-01-09T22:40:40.275Z,55.63
2023-01-09T22:43:08.443Z,57.87
2023-01-09T22:45:36.478Z,69.37
2023-01-09T22:48:04.700Z,72.53
2023-01-09T22:50:32.991Z,69.27
2023-01-09T22:53:00.992Z,60.93
2023-01-09T22:55:30.481Z,63.13
2023-01-09T22:57:58.493Z,56.07
2023-01-09T23:00:26.571Z,57.47
2023-01-09T23:02:54.645Z,56.63
2023-01-09T23:05:22.667Z,56.93
2023-01-09T23:07:50.659Z,50.97
2023-01-09T23:10:19.071Z,46.53
2023-01-09T23:12:50.245Z,47.67
2023-01-09T23:15:18.400Z,46.60
2023-01-09T23:17:46.454Z,43.20
2023-01-09T23:20:17.064Z,38.30
2023-01-09T23:22:45.057Z,39.53
2023-01-09T23:25:14.605Z,37.23
2023-01-09T23:27:42.956Z,36.30
2023-01-09T23:30:13.967Z,37.67
2023-01-09T23:32:42.016Z,37.33
2023-01-09T23:35:10.872Z,38.00
2023-01-09T23:37:38.994Z,35.47
2023-01-09T23:40:07.849Z,34.13
2023-01-09T23:42:53.539Z,34.43
2023-01-09T23:45:25.226Z,34.73
2023-01-09T23:47:53.220Z,33.83
2023-01-09T23:50:21.266Z,30.80
2023-01-09T23:52:49.265Z,33.43
2023-01-09T23:55:17.333Z,31.93
2023-01-09T23:57:45.420Z,30.63
